sensor_id;sensor_type;location;lat;lon;timestamp;P1;durP1;ratioP1;P2;durP2;ratioP2
48823;SDS011;34640;53.590;10.054;2022-09-27T00:00:45;4.47;;;2.25;;
48823;SDS011;34640;53.590;10.054;2022-09-27T00:03:38;3.22;;;1.98;;
48823;SDS011;34640;53.590;10.054;2022-09-27T00:06:30;4.45;;;2.40;;
48823;SDS011;34640;53.590;10.054;2022-09-27T00:12:19;2.83;;;2.05;;
48823;SDS011;34640;53.590;10.054;2022-09-27T00:15:11;4.63;;;2.42;;
48823;SDS011;34640;53.590;10.054;2022-09-27T00:18:03;5.40;;;2.80;;
48823;SDS011;34640;53.590;10.054;2022-09-27T00:20:56;3.53;;;2.20;;
48823;SDS011;34640;53.590;10.054;2022-09-27T00:23:54;3.92;;;2.30;;
48823;SDS011;34640;53.590;10.054;2022-09-27T00:26:46;4.43;;;2.15;;
48823;SDS011;34640;53.590;10.054;2022-09-27T00:29:38;3.38;;;2.10;;
48823;SDS011;34640;53.590;10.054;2022-09-27T00:32:30;3.15;;;2.13;;
48823;SDS011;34640;53.590;10.054;2022-09-27T00:35:21;4.60;;;2.30;;
48823;SDS011;34640;53.590;10.054;2022-09-27T00:38:14;5.55;;;2.30;;
48823;SDS011;34640;53.590;10.054;2022-09-27T00:41:05;3.75;;;2.05;;
48823;SDS011;34640;53.590;10.054;2022-09-27T00:43:57;3.28;;;2.47;;
48823;SDS011;34640;53.590;10.054;2022-09-27T00:46:52;4.07;;;2.10;;
48823;SDS011;34640;53.590;10.054;2022-09-27T00:49:49;3.05;;;2.25;;
48823;SDS011;34640;53.590;10.054;2022-09-27T00:52:47;5.18;;;2.13;;
48823;SDS011;34640;53.590;10.054;2022-09-27T00:55:47;3.13;;;2.00;;
48823;SDS011;34640;53.590;10.054;2022-09-27T00:58:42;3.50;;;2.40;;
48823;SDS011;34640;53.590;10.054;2022-09-27T01:01:36;2.83;;;1.95;;
48823;SDS011;34640;53.590;10.054;2022-09-27T01:04:28;3.25;;;1.95;;
48823;SDS011;34640;53.590;10.054;2022-09-27T01:07:21;6.97;;;2.20;;
48823;SDS011;34640;53.590;10.054;2022-09-27T01:10:13;4.15;;;2.50;;
48823;SDS011;34640;53.590;10.054;2022-09-27T01:13:09;3.30;;;2.25;;
48823;SDS011;34640;53.590;10.054;2022-09-27T01:16:10;3.65;;;2.22;;
48823;SDS011;34640;53.590;10.054;2022-09-27T01:19:09;3.17;;;2.20;;
48823;SDS011;34640;53.590;10.054;2022-09-27T01:22:08;3.40;;;2.10;;
48823;SDS011;34640;53.590;10.054;2022-09-27T01:25:10;3.28;;;2.10;;
48823;SDS011;34640;53.590;10.054;2022-09-27T01:28:20;3.35;;;1.90;;
48823;SDS011;34640;53.590;10.054;2022-09-27T01:31:25;3.72;;;1.90;;
48823;SDS011;34640;53.590;10.054;2022-09-27T01:34:22;6.70;;;1.85;;
48823;SDS011;34640;53.590;10.054;2022-09-27T01:37:21;4.57;;;1.90;;
48823;SDS011;34640;53.590;10.054;2022-09-27T01:40:19;3.63;;;1.65;;
48823;SDS011;34640;53.590;10.054;2022-09-27T01:43:20;2.83;;;1.70;;
48823;SDS011;34640;53.590;10.054;2022-09-27T01:46:16;3.00;;;2.00;;
48823;SDS011;34640;53.590;10.054;2022-09-27T01:49:16;3.95;;;1.83;;
48823;SDS011;34640;53.590;10.054;2022-09-27T01:52:13;3.60;;;1.90;;
48823;SDS011;34640;53.590;10.054;2022-09-27T01:55:09;2.75;;;1.60;;
48823;SDS011;34640;53.590;10.054;2022-09-27T01:58:05;3.13;;;1.83;;
48823;SDS011;34640;53.590;10.054;2022-09-27T02:01:02;3.53;;;2.15;;
48823;SDS011;34640;53.590;10.054;2022-09-27T02:03:55;2.60;;;1.50;;
48823;SDS011;34640;53.590;10.054;2022-09-27T02:06:52;4.88;;;1.90;;
48823;SDS011;34640;53.590;10.054;2022-09-27T02:09:50;3.80;;;1.52;;
48823;SDS011;34640;53.590;10.054;2022-09-27T02:12:48;4.00;;;1.83;;
48823;SDS011;34640;53.590;10.054;2022-09-27T02:15:48;5.28;;;2.15;;
48823;SDS011;34640;53.590;10.054;2022-09-27T02:18:48;4.15;;;2.13;;
48823;SDS011;34640;53.590;10.054;2022-09-27T02:21:48;3.53;;;2.00;;
48823;SDS011;34640;53.590;10.054;2022-09-27T02:24:52;3.08;;;1.80;;
48823;SDS011;34640;53.590;10.054;2022-09-27T02:27:49;5.80;;;2.08;;
48823;SDS011;34640;53.590;10.054;2022-09-27T02:30:47;2.10;;;1.58;;
48823;SDS011;34640;53.590;10.054;2022-09-27T02:33:40;5.53;;;2.20;;
48823;SDS011;34640;53.590;10.054;2022-09-27T02:36:35;3.95;;;1.90;;
48823;SDS011;34640;53.590;10.054;2022-09-27T02:39:29;2.50;;;1.83;;
48823;SDS011;34640;53.590;10.054;2022-09-27T02:42:20;4.53;;;2.25;;
48823;SDS011;34640;53.590;10.054;2022-09-27T02:45:12;2.78;;;1.77;;
48823;SDS011;34640;53.590;10.054;2022-09-27T02:48:11;4.60;;;1.90;;
48823;SDS011;34640;53.590;10.054;2022-09-27T02:51:13;5.07;;;2.00;;
48823;SDS011;34640;53.590;10.054;2022-09-27T02:54:15;3.58;;;2.03;;
48823;SDS011;34640;53.590;10.054;2022-09-27T02:57:20;4.93;;;2.05;;
48823;SDS011;34640;53.590;10.054;2022-09-27T03:00:18;3.03;;;2.05;;
48823;SDS011;34640;53.590;10.054;2022-09-27T03:03:12;6.78;;;2.35;;
48823;SDS011;34640;53.590;10.054;2022-09-27T03:06:09;4.32;;;1.92;;
48823;SDS011;34640;53.590;10.054;2022-09-27T03:09:01;4.78;;;1.90;;
48823;SDS011;34640;53.590;10.054;2022-09-27T03:11:53;3.53;;;2.17;;
48823;SDS011;34640;53.590;10.054;2022-09-27T03:14:46;3.28;;;2.53;;
48823;SDS011;34640;53.590;10.054;2022-09-27T03:17:37;3.72;;;2.42;;
48823;SDS011;34640;53.590;10.054;2022-09-27T03:20:29;3.22;;;2.20;;
48823;SDS011;34640;53.590;10.054;2022-09-27T03:23:21;3.63;;;2.25;;
48823;SDS011;34640;53.590;10.054;2022-09-27T03:26:13;3.00;;;2.03;;
48823;SDS011;34640;53.590;10.054;2022-09-27T03:29:04;5.00;;;2.50;;
48823;SDS011;34640;53.590;10.054;2022-09-27T03:31:57;5.15;;;3.00;;
48823;SDS011;34640;53.590;10.054;2022-09-27T03:34:49;3.80;;;2.47;;
48823;SDS011;34640;53.590;10.054;2022-09-27T03:37:40;4.25;;;2.80;;
48823;SDS011;34640;53.590;10.054;2022-09-27T03:40:32;7.00;;;3.33;;
48823;SDS011;34640;53.590;10.054;2022-09-27T03:43:24;6.13;;;3.30;;
48823;SDS011;34640;53.590;10.054;2022-09-27T03:46:15;4.80;;;3.33;;
48823;SDS011;34640;53.590;10.054;2022-09-27T03:49:08;7.75;;;3.67;;
48823;SDS011;34640;53.590;10.054;2022-09-27T03:52:00;7.35;;;3.72;;
48823;SDS011;34640;53.590;10.054;2022-09-27T03:54:52;6.22;;;3.95;;
48823;SDS011;34640;53.590;10.054;2022-09-27T03:57:50;6.90;;;3.78;;
48823;SDS011;34640;53.590;10.054;2022-09-27T04:00:42;7.35;;;4.43;;
48823;SDS011;34640;53.590;10.054;2022-09-27T04:03:35;5.35;;;3.75;;
48823;SDS011;34640;53.590;10.054;2022-09-27T04:06:28;7.30;;;4.28;;
48823;SDS011;34640;53.590;10.054;2022-09-27T04:09:20;7.00;;;4.78;;
48823;SDS011;34640;53.590;10.054;2022-09-27T04:12:12;7.38;;;4.55;;
48823;SDS011;34640;53.590;10.054;2022-09-27T04:15:04;7.20;;;4.50;;
48823;SDS011;34640;53.590;10.054;2022-09-27T04:17:56;6.30;;;4.18;;
48823;SDS011;34640;53.590;10.054;2022-09-27T04:20:48;6.90;;;4.00;;
48823;SDS011;34640;53.590;10.054;2022-09-27T04:23:41;6.90;;;4.18;;
48823;SDS011;34640;53.590;10.054;2022-09-27T04:26:32;5.45;;;4.35;;
48823;SDS011;34640;53.590;10.054;2022-09-27T04:29:23;7.35;;;4.18;;
48823;SDS011;34640;53.590;10.054;2022-09-27T04:32:15;5.85;;;3.67;;
48823;SDS011;34640;53.590;10.054;2022-09-27T04:35:07;7.28;;;4.10;;
48823;SDS011;34640;53.590;10.054;2022-09-27T04:38:16;7.28;;;3.95;;
48823;SDS011;34640;53.590;10.054;2022-09-27T04:41:14;5.35;;;4.32;;
48823;SDS011;34640;53.590;10.054;2022-09-27T04:44:06;6.40;;;4.53;;
48823;SDS011;34640;53.590;10.054;2022-09-27T04:46:57;7.38;;;4.40;;
48823;SDS011;34640;53.590;10.054;2022-09-27T04:49:49;8.95;;;5.13;;
48823;SDS011;34640;53.590;10.054;2022-09-27T04:52:40;8.35;;;4.05;;
48823;SDS011;34640;53.590;10.054;2022-09-27T04:55:32;9.77;;;4.47;;
48823;SDS011;34640;53.590;10.054;2022-09-27T04:58:25;6.50;;;4.22;;
48823;SDS011;34640;53.590;10.054;2022-09-27T05:01:17;5.97;;;4.13;;
48823;SDS011;34640;53.590;10.054;2022-09-27T05:04:08;5.68;;;4.03;;
48823;SDS011;34640;53.590;10.054;2022-09-27T05:06:59;8.73;;;4.80;;
48823;SDS011;34640;53.590;10.054;2022-09-27T05:09:51;7.00;;;4.15;;
48823;SDS011;34640;53.590;10.054;2022-09-27T05:12:43;7.47;;;4.32;;
48823;SDS011;34640;53.590;10.054;2022-09-27T05:15:36;7.88;;;4.43;;
48823;SDS011;34640;53.590;10.054;2022-09-27T05:18:27;7.15;;;3.95;;
48823;SDS011;34640;53.590;10.054;2022-09-27T05:21:19;5.85;;;4.32;;
48823;SDS011;34640;53.590;10.054;2022-09-27T05:24:10;5.45;;;3.97;;
48823;SDS011;34640;53.590;10.054;2022-09-27T05:27:02;8.65;;;4.72;;
48823;SDS011;34640;53.590;10.054;2022-09-27T05:29:57;7.10;;;4.32;;
48823;SDS011;34640;53.590;10.054;2022-09-27T05:32:51;6.38;;;4.35;;
48823;SDS011;34640;53.590;10.054;2022-09-27T05:35:49;8.88;;;4.80;;
48823;SDS011;34640;53.590;10.054;2022-09-27T05:41:34;6.50;;;4.18;;
48823;SDS011;34640;53.590;10.054;2022-09-27T05:44:25;8.77;;;5.38;;
48823;SDS011;34640;53.590;10.054;2022-09-27T05:47:17;7.53;;;5.65;;
48823;SDS011;34640;53.590;10.054;2022-09-27T05:50:10;9.57;;;6.10;;
48823;SDS011;34640;53.590;10.054;2022-09-27T05:53:01;11.60;;;6.60;;
48823;SDS011;34640;53.590;10.054;2022-09-27T05:55:53;17.42;;;8.25;;
48823;SDS011;34640;53.590;10.054;2022-09-27T05:58:45;12.25;;;7.05;;
48823;SDS011;34640;53.590;10.054;2022-09-27T06:01:36;10.05;;;7.35;;
48823;SDS011;34640;53.590;10.054;2022-09-27T06:04:28;13.25;;;8.20;;
48823;SDS011;34640;53.590;10.054;2022-09-27T06:07:21;19.30;;;8.70;;
48823;SDS011;34640;53.590;10.054;2022-09-27T06:10:13;13.48;;;9.02;;
48823;SDS011;34640;53.590;10.054;2022-09-27T06:13:05;16.48;;;9.93;;
48823;SDS011;34640;53.590;10.054;2022-09-27T06:15:58;15.85;;;10.32;;
48823;SDS011;34640;53.590;10.054;2022-09-27T06:18:50;13.93;;;9.40;;
48823;SDS011;34640;53.590;10.054;2022-09-27T06:21:42;18.08;;;10.27;;
48823;SDS011;34640;53.590;10.054;2022-09-27T06:24:35;16.33;;;11.00;;
48823;SDS011;34640;53.590;10.054;2022-09-27T06:27:26;20.30;;;11.30;;
48823;SDS011;34640;53.590;10.054;2022-09-27T06:30:18;23.70;;;13.23;;
48823;SDS011;34640;53.590;10.054;2022-09-27T06:33:10;11.80;;;7.90;;
48823;SDS011;34640;53.590;10.054;2022-09-27T06:36:04;11.18;;;6.97;;
48823;SDS011;34640;53.590;10.054;2022-09-27T06:38:56;16.77;;;7.80;;
48823;SDS011;34640;53.590;10.054;2022-09-27T06:41:53;12.75;;;8.10;;
48823;SDS011;34640;53.590;10.054;2022-09-27T06:44:46;11.75;;;7.07;;
48823;SDS011;34640;53.590;10.054;2022-09-27T06:47:39;14.95;;;7.50;;
48823;SDS011;34640;53.590;10.054;2022-09-27T06:50:31;12.88;;;5.95;;
48823;SDS011;34640;53.590;10.054;2022-09-27T06:53:24;19.70;;;11.63;;
48823;SDS011;34640;53.590;10.054;2022-09-27T06:56:18;9.52;;;5.82;;
48823;SDS011;34640;53.590;10.054;2022-09-27T06:59:11;11.10;;;4.60;;
48823;SDS011;34640;53.590;10.054;2022-09-27T07:02:20;6.65;;;4.20;;
48823;SDS011;34640;53.590;10.054;2022-09-27T07:05:12;7.05;;;4.32;;
48823;SDS011;34640;53.590;10.054;2022-09-27T07:08:03;7.68;;;4.15;;
48823;SDS011;34640;53.590;10.054;2022-09-27T07:10:55;6.13;;;3.20;;
48823;SDS011;34640;53.590;10.054;2022-09-27T07:13:52;6.72;;;3.15;;
48823;SDS011;34640;53.590;10.054;2022-09-27T07:16:46;6.53;;;3.05;;
48823;SDS011;34640;53.590;10.054;2022-09-27T07:19:38;7.82;;;2.55;;
48823;SDS011;34640;53.590;10.054;2022-09-27T07:22:30;9.13;;;3.10;;
48823;SDS011;34640;53.590;10.054;2022-09-27T07:25:21;9.40;;;3.65;;
48823;SDS011;34640;53.590;10.054;2022-09-27T07:28:15;5.72;;;2.47;;
48823;SDS011;34640;53.590;10.054;2022-09-27T07:31:11;2.50;;;1.17;;
48823;SDS011;34640;53.590;10.054;2022-09-27T07:34:04;2.30;;;0.98;;
48823;SDS011;34640;53.590;10.054;2022-09-27T07:36:57;4.40;;;1.33;;
48823;SDS011;34640;53.590;10.054;2022-09-27T07:39:49;5.25;;;1.10;;
48823;SDS011;34640;53.590;10.054;2022-09-27T07:42:41;3.95;;;0.93;;
48823;SDS011;34640;53.590;10.054;2022-09-27T07:45:32;1.55;;;0.80;;
48823;SDS011;34640;53.590;10.054;2022-09-27T07:48:24;2.60;;;0.82;;
48823;SDS011;34640;53.590;10.054;2022-09-27T07:51:17;1.98;;;0.70;;
48823;SDS011;34640;53.590;10.054;2022-09-27T07:54:08;1.52;;;0.60;;
48823;SDS011;34640;53.590;10.054;2022-09-27T07:57:00;1.90;;;0.77;;
48823;SDS011;34640;53.590;10.054;2022-09-27T07:59:52;5.20;;;1.20;;
48823;SDS011;34640;53.590;10.054;2022-09-27T08:02:44;1.85;;;1.00;;
48823;SDS011;34640;53.590;10.054;2022-09-27T08:05:36;4.43;;;1.30;;
48823;SDS011;34640;53.590;10.054;2022-09-27T08:08:29;3.10;;;1.10;;
48823;SDS011;34640;53.590;10.054;2022-09-27T08:11:20;2.40;;;1.25;;
48823;SDS011;34640;53.590;10.054;2022-09-27T08:14:12;2.80;;;1.00;;
48823;SDS011;34640;53.590;10.054;2022-09-27T08:17:03;3.30;;;1.20;;
48823;SDS011;34640;53.590;10.054;2022-09-27T08:19:55;3.13;;;1.13;;
48823;SDS011;34640;53.590;10.054;2022-09-27T08:22:46;2.70;;;1.23;;
48823;SDS011;34640;53.590;10.054;2022-09-27T08:25:39;5.28;;;1.05;;
48823;SDS011;34640;53.590;10.054;2022-09-27T08:28:31;3.70;;;1.05;;
48823;SDS011;34640;53.590;10.054;2022-09-27T08:31:23;2.30;;;0.85;;
48823;SDS011;34640;53.590;10.054;2022-09-27T08:34:14;3.60;;;0.93;;
48823;SDS011;34640;53.590;10.054;2022-09-27T08:37:06;2.40;;;0.88;;
48823;SDS011;34640;53.590;10.054;2022-09-27T08:39:58;5.20;;;1.70;;
48823;SDS011;34640;53.590;10.054;2022-09-27T08:42:53;4.78;;;1.30;;
48823;SDS011;34640;53.590;10.054;2022-09-27T08:45:54;2.80;;;1.00;;
48823;SDS011;34640;53.590;10.054;2022-09-27T08:48:56;5.30;;;1.30;;
48823;SDS011;34640;53.590;10.054;2022-09-27T08:51:54;2.70;;;0.82;;
48823;SDS011;34640;53.590;10.054;2022-09-27T08:54:48;3.63;;;0.80;;
48823;SDS011;34640;53.590;10.054;2022-09-27T08:57:41;3.35;;;1.30;;
48823;SDS011;34640;53.590;10.054;2022-09-27T09:00:33;3.92;;;1.27;;
48823;SDS011;34640;53.590;10.054;2022-09-27T09:03:26;6.80;;;0.95;;
48823;SDS011;34640;53.590;10.054;2022-09-27T09:06:20;5.82;;;0.93;;
48823;SDS011;34640;53.590;10.054;2022-09-27T09:09:18;6.10;;;1.30;;
48823;SDS011;34640;53.590;10.054;2022-09-27T09:12:19;2.08;;;0.90;;
48823;SDS011;34640;53.590;10.054;2022-09-27T09:15:44;2.70;;;1.20;;
48823;SDS011;34640;53.590;10.054;2022-09-27T09:18:48;4.88;;;0.90;;
48823;SDS011;34640;53.590;10.054;2022-09-27T09:21:55;4.55;;;1.10;;
48823;SDS011;34640;53.590;10.054;2022-09-27T09:25:06;2.20;;;0.93;;
48823;SDS011;34640;53.590;10.054;2022-09-27T09:28:17;2.50;;;1.00;;
48823;SDS011;34640;53.590;10.054;2022-09-27T09:31:21;2.17;;;1.40;;
48823;SDS011;34640;53.590;10.054;2022-09-27T09:34:21;5.43;;;1.98;;
48823;SDS011;34640;53.590;10.054;2022-09-27T09:37:17;5.57;;;1.73;;
48823;SDS011;34640;53.590;10.054;2022-09-27T09:40:14;3.15;;;1.10;;
48823;SDS011;34640;53.590;10.054;2022-09-27T09:43:11;3.67;;;1.20;;
48823;SDS011;34640;53.590;10.054;2022-09-27T09:46:08;2.50;;;1.40;;
48823;SDS011;34640;53.590;10.054;2022-09-27T09:49:08;5.68;;;1.10;;
48823;SDS011;34640;53.590;10.054;2022-09-27T09:52:09;4.15;;;0.90;;
48823;SDS011;34640;53.590;10.054;2022-09-27T09:55:05;3.95;;;1.42;;
48823;SDS011;34640;53.590;10.054;2022-09-27T09:58:07;3.08;;;1.35;;
48823;SDS011;34640;53.590;10.054;2022-09-27T10:01:12;1.88;;;1.27;;
48823;SDS011;34640;53.590;10.054;2022-09-27T10:04:10;2.67;;;0.85;;
48823;SDS011;34640;53.590;10.054;2022-09-27T10:07:06;4.83;;;1.43;;
48823;SDS011;34640;53.590;10.054;2022-09-27T10:09:59;3.35;;;0.98;;
48823;SDS011;34640;53.590;10.054;2022-09-27T10:12:53;2.55;;;1.13;;
48823;SDS011;34640;53.590;10.054;2022-09-27T10:15:49;2.20;;;0.80;;
48823;SDS011;34640;53.590;10.054;2022-09-27T10:18:46;2.22;;;0.75;;
48823;SDS011;34640;53.590;10.054;2022-09-27T10:21:43;1.27;;;0.90;;
48823;SDS011;34640;53.590;10.054;2022-09-27T10:24:51;2.90;;;0.80;;
48823;SDS011;34640;53.590;10.054;2022-09-27T10:27:45;4.35;;;0.73;;
48823;SDS011;34640;53.590;10.054;2022-09-27T10:30:38;1.85;;;0.60;;
48823;SDS011;34640;53.590;10.054;2022-09-27T10:33:30;1.33;;;0.70;;
48823;SDS011;34640;53.590;10.054;2022-09-27T10:36:23;2.85;;;0.60;;
48823;SDS011;34640;53.590;10.054;2022-09-27T10:39:21;3.25;;;1.40;;
48823;SDS011;34640;53.590;10.054;2022-09-27T10:42:20;1.90;;;0.65;;
48823;SDS011;34640;53.590;10.054;2022-09-27T10:45:21;0.75;;;0.60;;
48823;SDS011;34640;53.590;10.054;2022-09-27T10:48:18;2.22;;;0.80;;
48823;SDS011;34640;53.590;10.054;2022-09-27T10:51:20;3.65;;;0.95;;
48823;SDS011;34640;53.590;10.054;2022-09-27T10:54:18;1.40;;;0.70;;
48823;SDS011;34640;53.590;10.054;2022-09-27T10:57:15;4.47;;;0.90;;
48823;SDS011;34640;53.590;10.054;2022-09-27T11:00:18;2.65;;;0.70;;
48823;SDS011;34640;53.590;10.054;2022-09-27T11:03:13;3.83;;;1.70;;
48823;SDS011;34640;53.590;10.054;2022-09-27T11:06:17;6.88;;;2.58;;
48823;SDS011;34640;53.590;10.054;2022-09-27T11:09:14;3.40;;;0.63;;
48823;SDS011;34640;53.590;10.054;2022-09-27T11:12:10;4.05;;;2.63;;
48823;SDS011;34640;53.590;10.054;2022-09-27T11:15:04;1.08;;;0.57;;
48823;SDS011;34640;53.590;10.054;2022-09-27T11:17:59;1.60;;;0.70;;
48823;SDS011;34640;53.590;10.054;2022-09-27T11:21:04;2.03;;;0.55;;
48823;SDS011;34640;53.590;10.054;2022-09-27T11:24:09;4.15;;;1.10;;
48823;SDS011;34640;53.590;10.054;2022-09-27T11:27:16;2.72;;;0.60;;
48823;SDS011;34640;53.590;10.054;2022-09-27T11:30:16;4.00;;;0.80;;
48823;SDS011;34640;53.590;10.054;2022-09-27T11:33:19;1.40;;;0.90;;
48823;SDS011;34640;53.590;10.054;2022-09-27T11:36:33;2.55;;;0.80;;
48823;SDS011;34640;53.590;10.054;2022-09-27T11:39:36;1.70;;;0.80;;
48823;SDS011;34640;53.590;10.054;2022-09-27T11:42:41;1.98;;;0.82;;
48823;SDS011;34640;53.590;10.054;2022-09-27T11:45:53;1.88;;;1.17;;
48823;SDS011;34640;53.590;10.054;2022-09-27T11:52:32;2.15;;;0.90;;
48823;SDS011;34640;53.590;10.054;2022-09-27T11:55:36;4.07;;;1.13;;
48823;SDS011;34640;53.590;10.054;2022-09-27T11:58:37;4.97;;;1.33;;
48823;SDS011;34640;53.590;10.054;2022-09-27T12:01:37;1.75;;;0.80;;
48823;SDS011;34640;53.590;10.054;2022-09-27T12:04:41;4.68;;;0.88;;
48823;SDS011;34640;53.590;10.054;2022-09-27T12:07:43;3.67;;;0.75;;
48823;SDS011;34640;53.590;10.054;2022-09-27T12:10:45;3.85;;;0.70;;
48823;SDS011;34640;53.590;10.054;2022-09-27T12:13:42;1.63;;;0.77;;
48823;SDS011;34640;53.590;10.054;2022-09-27T12:16:38;1.70;;;1.00;;
48823;SDS011;34640;53.590;10.054;2022-09-27T12:19:33;3.60;;;1.30;;
48823;SDS011;34640;53.590;10.054;2022-09-27T12:22:29;2.17;;;1.23;;
48823;SDS011;34640;53.590;10.054;2022-09-27T12:25:45;1.25;;;0.80;;
48823;SDS011;34640;53.590;10.054;2022-09-27T12:28:44;3.75;;;0.80;;
48823;SDS011;34640;53.590;10.054;2022-09-27T12:31:42;2.40;;;0.65;;
48823;SDS011;34640;53.590;10.054;2022-09-27T12:34:37;0.95;;;0.73;;
48823;SDS011;34640;53.590;10.054;2022-09-27T12:37:34;1.27;;;0.60;;
48823;SDS011;34640;53.590;10.054;2022-09-27T12:40:32;2.33;;;1.10;;
48823;SDS011;34640;53.590;10.054;2022-09-27T12:43:27;2.40;;;1.10;;
48823;SDS011;34640;53.590;10.054;2022-09-27T12:46:25;2.50;;;0.75;;
48823;SDS011;34640;53.590;10.054;2022-09-27T12:49:27;2.25;;;0.77;;
48823;SDS011;34640;53.590;10.054;2022-09-27T12:52:26;2.38;;;0.80;;
48823;SDS011;34640;53.590;10.054;2022-09-27T12:59:04;2.00;;;0.80;;
48823;SDS011;34640;53.590;10.054;2022-09-27T13:02:19;3.17;;;0.80;;
48823;SDS011;34640;53.590;10.054;2022-09-27T13:05:25;1.70;;;0.90;;
48823;SDS011;34640;53.590;10.054;2022-09-27T13:08:40;2.88;;;1.08;;
48823;SDS011;34640;53.590;10.054;2022-09-27T13:11:52;2.53;;;1.17;;
48823;SDS011;34640;53.590;10.054;2022-09-27T13:14:56;5.75;;;2.33;;
48823;SDS011;34640;53.590;10.054;2022-09-27T13:17:55;2.53;;;0.43;;
48823;SDS011;34640;53.590;10.054;2022-09-27T13:20:48;1.10;;;0.80;;
48823;SDS011;34640;53.590;10.054;2022-09-27T13:23:49;2.88;;;0.70;;
48823;SDS011;34640;53.590;10.054;2022-09-27T13:26:42;1.17;;;0.60;;
48823;SDS011;34640;53.590;10.054;2022-09-27T13:29:38;1.98;;;0.95;;
48823;SDS011;34640;53.590;10.054;2022-09-27T13:32:30;2.00;;;0.57;;
48823;SDS011;34640;53.590;10.054;2022-09-27T13:35:23;2.65;;;0.80;;
48823;SDS011;34640;53.590;10.054;2022-09-27T13:38:19;2.90;;;0.70;;
48823;SDS011;34640;53.590;10.054;2022-09-27T13:41:13;1.08;;;0.60;;
48823;SDS011;34640;53.590;10.054;2022-09-27T13:44:07;1.38;;;0.40;;
48823;SDS011;34640;53.590;10.054;2022-09-27T13:47:12;1.83;;;0.70;;
48823;SDS011;34640;53.590;10.054;2022-09-27T13:50:17;1.70;;;0.60;;
48823;SDS011;34640;53.590;10.054;2022-09-27T13:53:18;2.65;;;0.73;;
48823;SDS011;34640;53.590;10.054;2022-09-27T13:59:40;1.45;;;0.60;;
48823;SDS011;34640;53.590;10.054;2022-09-27T14:02:44;2.47;;;0.70;;
48823;SDS011;34640;53.590;10.054;2022-09-27T14:05:45;5.53;;;1.00;;
48823;SDS011;34640;53.590;10.054;2022-09-27T14:08:44;2.53;;;0.80;;
48823;SDS011;34640;53.590;10.054;2022-09-27T14:11:39;2.85;;;0.60;;
48823;SDS011;34640;53.590;10.054;2022-09-27T14:14:32;1.65;;;0.60;;
48823;SDS011;34640;53.590;10.054;2022-09-27T14:17:26;1.65;;;0.40;;
48823;SDS011;34640;53.590;10.054;2022-09-27T14:20:29;1.58;;;0.73;;
48823;SDS011;34640;53.590;10.054;2022-09-27T14:23:23;1.98;;;0.85;;
48823;SDS011;34640;53.590;10.054;2022-09-27T14:26:22;5.10;;;1.20;;
48823;SDS011;34640;53.590;10.054;2022-09-27T14:29:15;2.03;;;1.08;;
48823;SDS011;34640;53.590;10.054;2022-09-27T14:32:09;2.92;;;0.60;;
48823;SDS011;34640;53.590;10.054;2022-09-27T14:35:03;1.13;;;0.55;;
48823;SDS011;34640;53.590;10.054;2022-09-27T14:38:18;2.90;;;0.50;;
48823;SDS011;34640;53.590;10.054;2022-09-27T14:41:28;2.92;;;0.70;;
48823;SDS011;34640;53.590;10.054;2022-09-27T14:44:25;3.45;;;0.77;;
48823;SDS011;34640;53.590;10.054;2022-09-27T14:47:18;1.58;;;0.70;;
48823;SDS011;34640;53.590;10.054;2022-09-27T14:50:12;1.42;;;0.77;;
48823;SDS011;34640;53.590;10.054;2022-09-27T14:53:18;1.95;;;0.80;;
48823;SDS011;34640;53.590;10.054;2022-09-27T14:56:13;6.80;;;1.83;;
48823;SDS011;34640;53.590;10.054;2022-09-27T14:59:12;7.97;;;2.15;;
48823;SDS011;34640;53.590;10.054;2022-09-27T15:02:08;4.13;;;1.85;;
48823;SDS011;34640;53.590;10.054;2022-09-27T15:05:11;8.23;;;2.50;;
48823;SDS011;34640;53.590;10.054;2022-09-27T15:08:05;7.03;;;1.92;;
48823;SDS011;34640;53.590;10.054;2022-09-27T15:10:57;4.95;;;1.25;;
48823;SDS011;34640;53.590;10.054;2022-09-27T15:13:48;4.70;;;1.13;;
48823;SDS011;34640;53.590;10.054;2022-09-27T15:16:43;6.15;;;1.63;;
48823;SDS011;34640;53.590;10.054;2022-09-27T15:19:36;3.83;;;1.02;;
48823;SDS011;34640;53.590;10.054;2022-09-27T15:22:31;5.93;;;1.40;;
48823;SDS011;34640;53.590;10.054;2022-09-27T15:25:26;3.67;;;1.00;;
48823;SDS011;34640;53.590;10.054;2022-09-27T15:28:24;1.75;;;1.02;;
48823;SDS011;34640;53.590;10.054;2022-09-27T15:31:15;4.40;;;1.73;;
48823;SDS011;34640;53.590;10.054;2022-09-27T15:34:15;6.38;;;1.65;;
48823;SDS011;34640;53.590;10.054;2022-09-27T15:37:14;5.40;;;1.25;;
48823;SDS011;34640;53.590;10.054;2022-09-27T15:46:45;4.20;;;1.83;;
48823;SDS011;34640;53.590;10.054;2022-09-27T15:49:39;3.50;;;1.65;;
48823;SDS011;34640;53.590;10.054;2022-09-27T15:52:39;3.92;;;1.60;;
48823;SDS011;34640;53.590;10.054;2022-09-27T15:55:33;6.53;;;1.73;;
48823;SDS011;34640;53.590;10.054;2022-09-27T15:58:29;4.35;;;1.50;;
48823;SDS011;34640;53.590;10.054;2022-09-27T16:01:20;5.43;;;1.40;;
48823;SDS011;34640;53.590;10.054;2022-09-27T16:04:11;3.00;;;1.38;;
48823;SDS011;34640;53.590;10.054;2022-09-27T16:07:04;4.68;;;1.20;;
48823;SDS011;34640;53.590;10.054;2022-09-27T16:09:58;5.45;;;1.52;;
48823;SDS011;34640;53.590;10.054;2022-09-27T16:12:50;2.83;;;0.90;;
48823;SDS011;34640;53.590;10.054;2022-09-27T16:15:42;3.67;;;1.10;;
48823;SDS011;34640;53.590;10.054;2022-09-27T16:18:35;5.38;;;0.82;;
48823;SDS011;34640;53.590;10.054;2022-09-27T16:21:26;4.45;;;1.00;;
48823;SDS011;34640;53.590;10.054;2022-09-27T16:24:19;1.92;;;0.60;;
48823;SDS011;34640;53.590;10.054;2022-09-27T16:27:10;4.43;;;1.35;;
48823;SDS011;34640;53.590;10.054;2022-09-27T16:30:02;6.22;;;1.00;;
48823;SDS011;34640;53.590;10.054;2022-09-27T16:32:54;3.50;;;0.70;;
48823;SDS011;34640;53.590;10.054;2022-09-27T16:35:45;2.47;;;0.70;;
48823;SDS011;34640;53.590;10.054;2022-09-27T16:38:37;3.13;;;0.77;;
48823;SDS011;34640;53.590;10.054;2022-09-27T16:41:30;4.22;;;1.35;;
48823;SDS011;34640;53.590;10.054;2022-09-27T16:44:21;3.05;;;1.45;;
48823;SDS011;34640;53.590;10.054;2022-09-27T16:47:13;4.15;;;1.17;;
48823;SDS011;34640;53.590;10.054;2022-09-27T16:50:05;2.38;;;0.73;;
48823;SDS011;34640;53.590;10.054;2022-09-27T16:53:14;2.10;;;0.90;;
48823;SDS011;34640;53.590;10.054;2022-09-27T16:56:07;4.07;;;1.08;;
48823;SDS011;34640;53.590;10.054;2022-09-27T16:58:59;4.40;;;1.17;;
48823;SDS011;34640;53.590;10.054;2022-09-27T17:01:53;5.25;;;1.50;;
48823;SDS011;34640;53.590;10.054;2022-09-27T17:04:46;4.60;;;1.33;;
48823;SDS011;34640;53.590;10.054;2022-09-27T17:07:37;4.95;;;1.48;;
48823;SDS011;34640;53.590;10.054;2022-09-27T17:10:28;4.95;;;1.40;;
48823;SDS011;34640;53.590;10.054;2022-09-27T17:13:20;9.10;;;2.00;;
48823;SDS011;34640;53.590;10.054;2022-09-27T17:16:13;5.32;;;2.03;;
48823;SDS011;34640;53.590;10.054;2022-09-27T17:19:05;2.42;;;1.10;;
48823;SDS011;34640;53.590;10.054;2022-09-27T17:21:56;6.63;;;1.50;;
48823;SDS011;34640;53.590;10.054;2022-09-27T17:24:48;1.52;;;0.80;;
48823;SDS011;34640;53.590;10.054;2022-09-27T17:27:40;3.60;;;1.60;;
48823;SDS011;34640;53.590;10.054;2022-09-27T17:30:31;4.65;;;1.52;;
48823;SDS011;34640;53.590;10.054;2022-09-27T17:33:25;6.95;;;2.38;;
48823;SDS011;34640;53.590;10.054;2022-09-27T17:36:17;10.88;;;3.88;;
48823;SDS011;34640;53.590;10.054;2022-09-27T17:39:10;8.50;;;3.72;;
48823;SDS011;34640;53.590;10.054;2022-09-27T17:42:03;8.85;;;3.70;;
48823;SDS011;34640;53.590;10.054;2022-09-27T17:44:55;11.43;;;3.30;;